Time;durP1;ratioP1;P1;durP2;ratioP2;P2;SDS_P1;SDS_P2;PMS_P1;PMS_P2;Temp;Humidity;BMP_temperature;BMP_pressure;BME280_temperature;BME280_humidity;BME280_pressure;Samples;Min_cycle;Max_cycle;Signal;HPM_P1;HPM_P2
2021/12/18 00:00:55;;;;;;;39.17;26.67;;;;;;;;;;5069987;28;20116;-65
2021/12/18 00:03:21;;;;;;;40.00;27.08;;;;;;;;;;5038136;28;20392;-66
2021/12/18 00:05:46;;;;;;;49.00;28.48;;;;;;;;;;5072914;28;20032;-66
2021/12/18 00:08:12;;;;;;;38.30;26.25;;;;;;;;;;5072715;28;20082;-67
2021/12/18 00:10:37;;;;;;;37.80;25.48;;;;;;;;;;5072559;28;20457;-65
2021/12/18 00:13:03;;;;;;;37.80;26.25;;;;;;;;;;5072587;28;20082;-65
2021/12/18 00:15:29;;;;;;;42.92;27.77;;;;;;;;;;5072981;28;20029;-66
2021/12/18 00:17:55;;;;;;;40.22;28.02;;;;;;;;;;5072615;28;20074;-65
2021/12/18 00:20:21;;;;;;;41.92;28.27;;;;;;;;;;5061070;28;20025;-64
2021/12/18 00:22:47;;;;;;;39.38;26.50;;;;;;;;;;5051288;28;20052;-66
2021/12/18 00:25:12;;;;;;;41.00;26.10;;;;;;;;;;5052341;28;20412;-65
2021/12/18 00:27:38;;;;;;;34.25;24.70;;;;;;;;;;5052450;28;20082;-65
2021/12/18 00:30:05;;;;;;;32.97;23.63;;;;;;;;;;5052368;28;20115;-65
2021/12/18 00:32:30;;;;;;;35.28;24.70;;;;;;;;;;5051270;28;20059;-66
2021/12/18 00:34:55;;;;;;;37.67;24.70;;;;;;;;;;5052254;28;20073;-65
2021/12/18 00:37:21;;;;;;;38.95;23.67;;;;;;;;;;5052707;28;20060;-65
2021/12/18 00:39:56;;;;;;;37.22;24.83;;;;;;;;;;5052266;28;20059;-64
2021/12/18 00:44:50;;;;;;;34.97;24.50;;;;;;;;;;5052335;28;20079;-65
2021/12/18 00:47:16;;;;;;;40.22;26.75;;;;;;;;;;5052219;28;20431;-64
2021/12/18 00:49:41;;;;;;;40.38;26.15;;;;;;;;;;5052121;28;20041;-65
2021/12/18 00:52:06;;;;;;;36.70;25.25;;;;;;;;;;5052460;28;20044;-64
2021/12/18 00:54:34;;;;;;;34.92;25.30;;;;;;;;;;5052081;28;20036;-64
2021/12/18 00:56:59;;;;;;;42.58;25.23;;;;;;;;;;5051974;28;20127;-65
2021/12/18 00:59:25;;;;;;;37.25;24.58;;;;;;;;;;5052124;28;20116;-64
2021/12/18 01:01:50;;;;;;;38.40;24.88;;;;;;;;;;5052063;28;20037;-64
2021/12/18 01:04:16;;;;;;;39.75;25.25;;;;;;;;;;5034102;28;20040;-65
2021/12/18 01:06:41;;;;;;;46.30;27.65;;;;;;;;;;5034327;28;20086;-65
2021/12/18 01:09:07;;;;;;;39.83;26.40;;;;;;;;;;5052071;28;20041;-65
2021/12/18 01:11:34;;;;;;;35.45;24.67;;;;;;;;;;5051729;28;20126;-64
2021/12/18 01:14:20;;;;;;;35.85;25.02;;;;;;;;;;5067226;28;20036;-65
2021/12/18 01:24:58;;;;;;;35.03;23.65;;;;;;;;;;5071301;28;20028;-61
2021/12/18 01:27:23;;;;;;;36.22;24.15;;;;;;;;;;5053785;28;20062;-63
2021/12/18 01:29:49;;;;;;;40.63;25.02;;;;;;;;;;5071318;28;20093;-61
2021/12/18 01:32:14;;;;;;;38.33;24.02;;;;;;;;;;5071626;28;20040;-62
2021/12/18 01:34:40;;;;;;;37.65;25.60;;;;;;;;;;5053574;28;20028;-63
2021/12/18 01:37:05;;;;;;;35.67;23.67;;;;;;;;;;5071325;28;20403;-62
2021/12/18 01:39:34;;;;;;;36.13;24.98;;;;;;;;;;5071448;28;20043;-63
2021/12/18 01:52:42;;;;;;;31.80;21.95;;;;;;;;;;5055045;28;20040;-62
2021/12/18 01:55:12;;;;;;;36.75;23.55;;;;;;;;;;5072486;28;20288;-62
2021/12/18 01:57:38;;;;;;;40.42;23.08;;;;;;;;;;5072542;28;20036;-62
2021/12/18 02:00:14;;;;;;;38.35;25.00;;;;;;;;;;5054511;28;20032;-64
2021/12/18 02:02:39;;;;;;;37.55;24.30;;;;;;;;;;5054918;28;20037;-64
2021/12/18 02:05:05;;;;;;;35.60;23.27;;;;;;;;;;5072750;28;20043;-63
2021/12/18 02:07:30;;;;;;;32.28;22.52;;;;;;;;;;5069764;28;20052;-63
2021/12/18 02:10:06;;;;;;;33.03;22.92;;;;;;;;;;5038275;28;20504;-62
2021/12/18 02:12:47;;;;;;;32.13;21.42;;;;;;;;;;5054453;28;20104;-62
2021/12/18 02:20:45;;;;;;;34.22;20.75;;;;;;;;;;5053015;28;20136;-62
2021/12/18 02:23:10;;;;;;;30.55;22.65;;;;;;;;;;5036417;28;20033;-62
2021/12/18 02:25:36;;;;;;;32.42;21.52;;;;;;;;;;5054195;28;20059;-62
2021/12/18 02:28:06;;;;;;;34.55;21.85;;;;;;;;;;5054010;28;20062;-62
2021/12/18 02:30:32;;;;;;;39.65;22.45;;;;;;;;;;5036322;28;20064;-62
2021/12/18 02:32:58;;;;;;;31.20;22.08;;;;;;;;;;5036130;28;20037;-62
2021/12/18 02:35:28;;;;;;;34.65;22.65;;;;;;;;;;5036280;28;20195;-62
2021/12/18 02:38:08;;;;;;;34.30;21.15;;;;;;;;;;5036269;28;20033;-61
2021/12/18 02:43:11;;;;;;;36.05;21.65;;;;;;;;;;5052654;28;20090;-62
2021/12/18 02:45:37;;;;;;;32.53;21.08;;;;;;;;;;5053695;28;20037;-61
2021/12/18 02:48:02;;;;;;;30.80;21.95;;;;;;;;;;5053775;28;20025;-62
2021/12/18 02:50:28;;;;;;;27.98;19.05;;;;;;;;;;5053975;28;20041;-62
2021/12/18 02:52:53;;;;;;;30.95;20.27;;;;;;;;;;5053828;28;20039;-61
2021/12/18 02:55:18;;;;;;;31.40;20.83;;;;;;;;;;5053772;28;20110;-62
2021/12/18 02:57:44;;;;;;;32.90;20.52;;;;;;;;;;5053445;28;20039;-61
2021/12/18 03:00:09;;;;;;;26.42;18.55;;;;;;;;;;5052679;28;20135;-61
2021/12/18 03:02:40;;;;;;;28.52;18.92;;;;;;;;;;5052475;28;20029;-62
2021/12/18 03:05:09;;;;;;;27.45;18.15;;;;;;;;;;5035911;28;20033;-61
2021/12/18 03:07:34;;;;;;;28.83;17.92;;;;;;;;;;5053611;28;20021;-61
2021/12/18 03:19:31;;;;;;;23.55;16.30;;;;;;;;;;5053451;28;20435;-61
2021/12/18 03:24:08;;;;;;;23.30;15.30;;;;;;;;;;5053566;28;20040;-61
2021/12/18 03:26:33;;;;;;;27.48;15.38;;;;;;;;;;5053391;28;20041;-61
2021/12/18 03:28:58;;;;;;;22.85;14.57;;;;;;;;;;5053018;28;20037;-60
2021/12/18 03:31:24;;;;;;;21.38;14.95;;;;;;;;;;5053050;28;20037;-61
2021/12/18 03:33:49;;;;;;;21.58;14.23;;;;;;;;;;5035372;28;20400;-61
2021/12/18 03:36:15;;;;;;;26.15;16.85;;;;;;;;;;5053081;28;20039;-61
2021/12/18 03:38:40;;;;;;;25.95;17.80;;;;;;;;;;5052972;28;20040;-61
2021/12/18 03:41:05;;;;;;;28.02;16.35;;;;;;;;;;5053009;28;20032;-60
2021/12/18 03:43:31;;;;;;;23.45;17.00;;;;;;;;;;5053046;28;20102;-61
2021/12/18 03:45:56;;;;;;;24.13;15.15;;;;;;;;;;5052875;28;20582;-62
2021/12/18 03:48:22;;;;;;;23.38;16.42;;;;;;;;;;5051581;28;20032;-61
2021/12/18 03:50:49;;;;;;;24.30;15.27;;;;;;;;;;5052811;28;20076;-61
2021/12/18 03:53:14;;;;;;;24.05;16.00;;;;;;;;;;5053284;28;20032;-60
2021/12/18 03:55:40;;;;;;;21.52;15.93;;;;;;;;;;5052930;28;20033;-61
2021/12/18 03:58:05;;;;;;;25.27;15.90;;;;;;;;;;5053143;28;20489;-61
2021/12/18 04:00:31;;;;;;;21.25;14.77;;;;;;;;;;5052734;28;20033;-62
2021/12/18 04:02:57;;;;;;;27.52;15.40;;;;;;;;;;5037596;28;20461;-61
2021/12/18 04:05:23;;;;;;;25.52;15.20;;;;;;;;;;5068395;28;20115;-61
2021/12/18 04:07:50;;;;;;;23.50;15.25;;;;;;;;;;5068716;28;20033;-61
2021/12/18 04:10:16;;;;;;;21.75;13.10;;;;;;;;;;5033876;28;20433;-62
2021/12/18 04:12:41;;;;;;;21.90;13.27;;;;;;;;;;5050585;28;20029;-62
2021/12/18 04:15:07;;;;;;;20.08;12.70;;;;;;;;;;5068709;28;20032;-62
2021/12/18 04:17:32;;;;;;;20.92;11.85;;;;;;;;;;5068554;28;20056;-62
2021/12/18 04:19:58;;;;;;;19.45;12.38;;;;;;;;;;5050715;28;20384;-64
2021/12/18 04:22:23;;;;;;;16.77;11.98;;;;;;;;;;5068766;28;20039;-62
2021/12/18 04:24:49;;;;;;;22.20;12.25;;;;;;;;;;5068532;28;20031;-61
2021/12/18 04:27:14;;;;;;;17.27;10.98;;;;;;;;;;5068637;28;20386;-61
2021/12/18 04:29:40;;;;;;;17.40;11.85;;;;;;;;;;5050649;28;20137;-62
2021/12/18 04:32:06;;;;;;;18.08;12.02;;;;;;;;;;5068386;28;20116;-61
2021/12/18 04:34:31;;;;;;;18.33;11.07;;;;;;;;;;5050583;28;20396;-61
2021/12/18 04:36:56;;;;;;;17.48;11.55;;;;;;;;;;5068103;28;20028;-61
2021/12/18 04:39:22;;;;;;;19.98;12.88;;;;;;;;;;5068341;28;20047;-61
2021/12/18 04:41:50;;;;;;;18.83;13.05;;;;;;;;;;5068151;28;20051;-64
2021/12/18 04:44:16;;;;;;;20.02;12.25;;;;;;;;;;5068333;28;20066;-61
2021/12/18 04:46:41;;;;;;;21.30;12.32;;;;;;;;;;5067917;28;20024;-61
2021/12/18 04:49:07;;;;;;;20.13;12.65;;;;;;;;;;5033519;28;20039;-61
2021/12/18 04:51:32;;;;;;;21.50;11.88;;;;;;;;;;5068471;28;20413;-61
2021/12/18 04:53:58;;;;;;;20.23;12.18;;;;;;;;;;5068103;28;20048;-62
2021/12/18 04:56:23;;;;;;;19.17;11.18;;;;;;;;;;5050254;28;20035;-62
2021/12/18 04:58:49;;;;;;;17.05;11.80;;;;;;;;;;5067945;28;20144;-62
2021/12/18 05:01:15;;;;;;;25.15;12.30;;;;;;;;;;5067955;28;20028;-61
2021/12/18 05:03:42;;;;;;;19.55;11.63;;;;;;;;;;5050446;28;20075;-61
2021/12/18 05:06:07;;;;;;;15.68;10.18;;;;;;;;;;5066311;28;20037;-64
2021/12/18 05:08:32;;;;;;;20.75;11.18;;;;;;;;;;5068077;28;20115;-61
2021/12/18 05:10:58;;;;;;;19.05;11.65;;;;;;;;;;5067615;28;20037;-61
2021/12/18 05:13:23;;;;;;;18.35;11.52;;;;;;;;;;5067854;28;20495;-63
2021/12/18 05:15:49;;;;;;;16.77;10.95;;;;;;;;;;5067834;28;20111;-64
2021/12/18 05:18:14;;;;;;;16.15;10.20;;;;;;;;;;5067898;28;20056;-60
2021/12/18 05:20:40;;;;;;;17.60;9.15;;;;;;;;;;5067421;28;20044;-60
2021/12/18 05:23:05;;;;;;;18.65;8.15;;;;;;;;;;5052268;28;20062;-60
2021/12/18 05:25:31;;;;;;;13.05;8.45;;;;;;;;;;5071506;28;20107;-60
2021/12/18 05:27:56;;;;;;;16.80;8.90;;;;;;;;;;5053277;28;20029;-62
2021/12/18 05:30:21;;;;;;;18.13;9.80;;;;;;;;;;5053491;28;20040;-60
2021/12/18 05:32:47;;;;;;;12.98;9.45;;;;;;;;;;5070887;28;20039;-60
2021/12/18 05:35:15;;;;;;;14.20;8.25;;;;;;;;;;5070128;28;20453;-60
2021/12/18 05:37:47;;;;;;;13.25;8.88;;;;;;;;;;5071316;28;20834;-61
2021/12/18 05:40:15;;;;;;;12.20;8.73;;;;;;;;;;5036229;28;20040;-64
2021/12/18 05:42:40;;;;;;;16.30;8.60;;;;;;;;;;5067103;28;20038;-61
2021/12/18 05:45:07;;;;;;;13.25;8.07;;;;;;;;;;5070898;28;20028;-60
2021/12/18 05:47:32;;;;;;;13.93;8.55;;;;;;;;;;5052595;28;20040;-61
2021/12/18 05:49:58;;;;;;;16.33;9.38;;;;;;;;;;5071054;28;20492;-62
2021/12/18 05:52:24;;;;;;;17.50;10.15;;;;;;;;;;5070573;28;20043;-66
2021/12/18 05:54:49;;;;;;;20.88;8.13;;;;;;;;;;5052702;28;20032;-62
2021/12/18 05:57:15;;;;;;;16.50;8.85;;;;;;;;;;5070926;28;20440;-63
2021/12/18 05:59:41;;;;;;;13.73;7.82;;;;;;;;;;5071466;28;20089;-61
2021/12/18 06:02:07;;;;;;;15.90;9.13;;;;;;;;;;5036062;28;20402;-66
2021/12/18 06:04:32;;;;;;;13.55;7.57;;;;;;;;;;5071058;28;20123;-61
2021/12/18 06:07:04;;;;;;;14.38;7.25;;;;;;;;;;5070458;28;20119;-61
2021/12/18 06:09:32;;;;;;;15.30;8.05;;;;;;;;;;5052413;28;20123;-62
2021/12/18 06:11:58;;;;;;;15.77;7.82;;;;;;;;;;5052657;28;20032;-63
2021/12/18 06:14:24;;;;;;;15.40;7.57;;;;;;;;;;5052036;28;20032;-61
2021/12/18 06:16:50;;;;;;;11.13;7.55;;;;;;;;;;5050239;28;20032;-63
2021/12/18 06:19:15;;;;;;;12.80;7.55;;;;;;;;;;5069393;28;20434;-62
2021/12/18 06:21:41;;;;;;;11.48;7.40;;;;;;;;;;5070617;28;20108;-62
2021/12/18 06:24:07;;;;;;;16.48;7.80;;;;;;;;;;5052268;28;20021;-62
2021/12/18 06:26:32;;;;;;;16.45;8.30;;;;;;;;;;5070697;28;20388;-64
2021/12/18 06:28:58;;;;;;;15.50;8.02;;;;;;;;;;5068882;28;20178;-62
2021/12/18 06:31:23;;;;;;;17.08;8.60;;;;;;;;;;5070170;28;20082;-63
2021/12/18 06:33:49;;;;;;;17.63;8.32;;;;;;;;;;5070374;28;20098;-61
2021/12/18 06:36:14;;;;;;;14.55;7.82;;;;;;;;;;5070286;28;20581;-62
2021/12/18 06:38:40;;;;;;;15.30;8.95;;;;;;;;;;5070268;28;20043;-64
2021/12/18 06:41:05;;;;;;;15.52;8.07;;;;;;;;;;5070229;28;20041;-61
2021/12/18 06:43:30;;;;;;;11.32;7.18;;;;;;;;;;5068994;28;20040;-61
2021/12/18 06:45:56;;;;;;;15.98;8.27;;;;;;;;;;5069865;28;20396;-67
2021/12/18 06:48:21;;;;;;;13.25;8.07;;;;;;;;;;5052103;28;20051;-61
2021/12/18 06:50:47;;;;;;;11.82;8.25;;;;;;;;;;5069747;28;20048;-61
2021/12/18 06:53:12;;;;;;;14.82;7.65;;;;;;;;;;5069997;28;20046;-62
2021/12/18 06:55:38;;;;;;;20.00;7.65;;;;;;;;;;5069943;28;20026;-61
2021/12/18 06:58:03;;;;;;;21.55;8.60;;;;;;;;;;5069959;28;20458;-60
2021/12/18 07:00:29;;;;;;;11.57;7.55;;;;;;;;;;5069610;28;20052;-63
2021/12/18 07:02:55;;;;;;;17.88;7.43;;;;;;;;;;5051513;28;20044;-63
2021/12/18 07:05:20;;;;;;;10.38;6.68;;;;;;;;;;5070112;28;20032;-61
2021/12/18 07:07:46;;;;;;;12.07;7.13;;;;;;;;;;5069876;28;20028;-61
2021/12/18 07:10:12;;;;;;;14.00;7.38;;;;;;;;;;5068671;28;20503;-63
2021/12/18 07:12:38;;;;;;;13.68;7.70;;;;;;;;;;5049861;28;20480;-63
2021/12/18 07:15:04;;;;;;;17.02;7.50;;;;;;;;;;5068862;28;20032;-63
2021/12/18 07:17:30;;;;;;;15.27;7.45;;;;;;;;;;5051341;28;20040;-62
2021/12/18 07:19:55;;;;;;;10.07;6.40;;;;;;;;;;5067827;28;20112;-64
2021/12/18 07:22:20;;;;;;;12.88;6.43;;;;;;;;;;5051934;28;20041;-62
2021/12/18 07:24:46;;;;;;;14.07;7.45;;;;;;;;;;5072769;28;20394;-62
2021/12/18 07:27:11;;;;;;;20.77;7.65;;;;;;;;;;5069349;28;20430;-62
2021/12/18 07:29:37;;;;;;;17.67;6.60;;;;;;;;;;5067519;28;20119;-63
2021/12/18 07:32:02;;;;;;;14.48;6.43;;;;;;;;;;5068908;28;20074;-62
2021/12/18 07:34:28;;;;;;;13.05;6.95;;;;;;;;;;5051874;28;20396;-61
2021/12/18 07:36:53;;;;;;;21.67;7.05;;;;;;;;;;5068913;28;20037;-61
2021/12/18 07:39:18;;;;;;;11.52;6.68;;;;;;;;;;5069670;28;20028;-62
2021/12/18 07:41:44;;;;;;;16.52;6.93;;;;;;;;;;5069305;28;20032;-62
2021/12/18 07:44:10;;;;;;;14.40;7.07;;;;;;;;;;5068700;28;20041;-62
2021/12/18 07:46:36;;;;;;;13.95;7.47;;;;;;;;;;5050545;28;20068;-63
2021/12/18 07:49:03;;;;;;;19.67;8.30;;;;;;;;;;5050997;28;20032;-62
2021/12/18 07:51:29;;;;;;;11.68;8.10;;;;;;;;;;5051589;28;20034;-62
2021/12/18 07:53:54;;;;;;;12.95;7.55;;;;;;;;;;5067806;28;20465;-62
2021/12/18 07:56:20;;;;;;;14.00;7.35;;;;;;;;;;5069122;28;20037;-68
2021/12/18 07:58:45;;;;;;;13.30;7.25;;;;;;;;;;5068977;28;20111;-62
2021/12/18 08:01:11;;;;;;;16.73;7.60;;;;;;;;;;5068989;28;20098;-61
2021/12/18 08:03:36;;;;;;;14.48;7.43;;;;;;;;;;5067603;28;20032;-63
2021/12/18 08:06:02;;;;;;;11.75;6.82;;;;;;;;;;5068828;28;20483;-62
2021/12/18 08:08:27;;;;;;;13.93;7.07;;;;;;;;;;5068994;28;20098;-62
2021/12/18 08:10:53;;;;;;;18.63;7.50;;;;;;;;;;5068681;28;20047;-62
2021/12/18 08:13:19;;;;;;;12.07;7.10;;;;;;;;;;5068727;28;20136;-71
2021/12/18 08:15:44;;;;;;;16.92;6.70;;;;;;;;;;5069229;28;20464;-69
2021/12/18 08:18:10;;;;;;;17.58;7.35;;;;;;;;;;5067189;28;20070;-71
2021/12/18 08:20:36;;;;;;;15.85;7.05;;;;;;;;;;5068503;28;20123;-68
2021/12/18 08:23:01;;;;;;;24.83;6.90;;;;;;;;;;5068498;28;20028;-70
2021/12/18 08:25:28;;;;;;;16.13;6.22;;;;;;;;;;5067516;28;20039;-72
2021/12/18 08:27:58;;;;;;;21.33;7.63;;;;;;;;;;5068938;28;20040;-71
2021/12/18 08:30:24;;;;;;;14.68;6.55;;;;;;;;;;5050699;28;20067;-69
2021/12/18 08:32:59;;;;;;;15.60;6.43;;;;;;;;;;5068280;28;20070;-71
2021/12/18 08:35:25;;;;;;;16.90;6.47;;;;;;;;;;5050727;28;20445;-71
2021/12/18 08:37:52;;;;;;;19.75;6.68;;;;;;;;;;5050495;28;20037;-70
2021/12/18 08:40:17;;;;;;;13.93;5.80;;;;;;;;;;5050837;28;20476;-71
2021/12/18 08:42:43;;;;;;;10.48;6.05;;;;;;;;;;5068036;28;20040;-71
2021/12/18 08:45:09;;;;;;;11.35;5.68;;;;;;;;;;5050180;28;20052;-68
2021/12/18 08:47:34;;;;;;;11.07;5.68;;;;;;;;;;5067176;28;20400;-68
2021/12/18 08:49:59;;;;;;;11.63;6.28;;;;;;;;;;5068138;28;20400;-71
2021/12/18 08:52:25;;;;;;;15.77;6.30;;;;;;;;;;5068204;28;20033;-70
2021/12/18 08:54:50;;;;;;;11.00;5.88;;;;;;;;;;5067996;28;20159;-71
2021/12/18 08:57:17;;;;;;;9.77;5.70;;;;;;;;;;5069602;28;20039;-70
2021/12/18 08:59:42;;;;;;;7.70;4.85;;;;;;;;;;5071531;28;20032;-69
2021/12/18 09:02:09;;;;;;;12.52;5.80;;;;;;;;;;5069094;28;20146;-68
2021/12/18 09:04:35;;;;;;;14.10;5.30;;;;;;;;;;5069022;28;20051;-68
2021/12/18 09:07:00;;;;;;;8.52;5.10;;;;;;;;;;5035869;28;20029;-67
2021/12/18 09:09:26;;;;;;;8.98;5.03;;;;;;;;;;5070208;28;20270;-69
2021/12/18 09:11:51;;;;;;;9.90;5.95;;;;;;;;;;5069787;28;20115;-68
2021/12/18 09:14:17;;;;;;;10.73;6.20;;;;;;;;;;5069264;28;20400;-67
2021/12/18 09:16:42;;;;;;;11.27;7.40;;;;;;;;;;5051402;28;20020;-68
2021/12/18 09:19:08;;;;;;;8.15;4.80;;;;;;;;;;5069608;28;20036;-68
2021/12/18 09:21:33;;;;;;;11.95;4.47;;;;;;;;;;5069260;28;20186;-67
2021/12/18 09:23:58;;;;;;;15.43;5.18;;;;;;;;;;5069606;28;20036;-67
2021/12/18 09:26:24;;;;;;;10.50;4.75;;;;;;;;;;5069436;28;20039;-68
2021/12/18 09:28:49;;;;;;;12.32;4.90;;;;;;;;;;5067822;28;20032;-68
2021/12/18 09:31:15;;;;;;;14.93;5.13;;;;;;;;;;5049640;28;20594;-67
2021/12/18 09:33:41;;;;;;;9.15;4.30;;;;;;;;;;5050433;28;20800;-68
2021/12/18 09:36:06;;;;;;;13.40;5.40;;;;;;;;;;5068876;28;20552;-68
2021/12/18 09:38:32;;;;;;;14.25;5.18;;;;;;;;;;5051617;28;20044;-68
2021/12/18 09:40:58;;;;;;;13.65;5.22;;;;;;;;;;5068488;28;20032;-68
2021/12/18 09:43:24;;;;;;;10.82;5.40;;;;;;;;;;5069123;28;20467;-68
2021/12/18 09:45:49;;;;;;;10.80;6.00;;;;;;;;;;5051343;28;20048;-67
2021/12/18 09:48:15;;;;;;;14.10;6.03;;;;;;;;;;5069205;28;20021;-68
2021/12/18 09:50:43;;;;;;;11.25;4.60;;;;;;;;;;5050606;28;20036;-68
2021/12/18 09:53:08;;;;;;;9.23;4.82;;;;;;;;;;5069218;28;20119;-68
2021/12/18 09:55:33;;;;;;;8.73;4.30;;;;;;;;;;5069268;28;20147;-68
2021/12/18 09:57:59;;;;;;;10.70;5.25;;;;;;;;;;5070017;28;20052;-69
2021/12/18 10:00:24;;;;;;;11.20;5.20;;;;;;;;;;5070935;28;20039;-69
2021/12/18 10:02:51;;;;;;;11.02;4.88;;;;;;;;;;5036235;28;20056;-68
2021/12/18 10:05:20;;;;;;;7.32;4.72;;;;;;;;;;5053214;28;20119;-69
2021/12/18 10:07:46;;;;;;;;;;;;;;;;;;5052927;28;20460;-67
2021/12/18 10:10:11;;;;;;;7.40;4.60;;;;;;;;;;5070922;28;20321;-68
2021/12/18 10:12:37;;;;;;;10.18;5.40;;;;;;;;;;5070475;28;20040;-69
2021/12/18 10:15:04;;;;;;;8.20;4.47;;;;;;;;;;5052408;28;20079;-69
2021/12/18 10:17:37;;;;;;;7.25;4.53;;;;;;;;;;5070676;28;20055;-69
2021/12/18 10:20:22;;;;;;;7.45;4.70;;;;;;;;;;5052294;28;20472;-69
2021/12/18 10:22:47;;;;;;;8.27;4.68;;;;;;;;;;5052628;28;20024;-70
2021/12/18 10:25:14;;;;;;;9.27;4.95;;;;;;;;;;5070609;28;20369;-67
2021/12/18 10:27:43;;;;;;;12.52;4.72;;;;;;;;;;5052585;28;20047;-68
2021/12/18 10:30:17;;;;;;;6.40;4.50;;;;;;;;;;5036154;28;20640;-69
2021/12/18 10:32:57;;;;;;;8.68;4.80;;;;;;;;;;5070675;28;20104;-69
2021/12/18 10:35:35;;;;;;;7.75;5.30;;;;;;;;;;5070205;28;20048;-68
2021/12/18 10:38:00;;;;;;;7.45;4.72;;;;;;;;;;5052252;28;20124;-69
2021/12/18 10:40:25;;;;;;;9.35;4.90;;;;;;;;;;5070707;28;20115;-68
2021/12/18 10:42:53;;;;;;;9.05;4.93;;;;;;;;;;5070296;28;20488;-68
2021/12/18 10:45:18;;;;;;;8.25;4.85;;;;;;;;;;5052455;28;20033;-67
2021/12/18 10:47:44;;;;;;;5.60;4.07;;;;;;;;;;5070435;28;20384;-68
2021/12/18 10:50:18;;;;;;;6.80;4.95;;;;;;;;;;5070225;28;20396;-68
2021/12/18 10:52:44;;;;;;;7.43;4.63;;;;;;;;;;5069739;28;20036;-68
2021/12/18 10:55:09;;;;;;;9.52;5.03;;;;;;;;;;5035678;28;20040;-68
2021/12/18 10:57:35;;;;;;;7.22;5.30;;;;;;;;;;5052022;28;20028;-67
2021/12/18 11:00:01;;;;;;;8.98;5.28;;;;;;;;;;5070205;28;20029;-67
2021/12/18 11:02:27;;;;;;;8.15;4.95;;;;;;;;;;5070064;28;20029;-68
2021/12/18 11:05:11;;;;;;;7.80;5.10;;;;;;;;;;5051621;28;20044;-68
2021/12/18 11:07:42;;;;;;;8.38;5.43;;;;;;;;;;5051171;28;20024;-68
2021/12/18 11:10:42;;;;;;;14.23;6.03;;;;;;;;;;5069582;28;20127;-68
2021/12/18 11:15:52;;;;;;;9.10;6.47;;;;;;;;;;5048214;28;20063;-67
2021/12/18 11:18:18;;;;;;;8.88;6.30;;;;;;;;;;5049971;28;20513;-68
2021/12/18 11:20:43;;;;;;;10.82;5.63;;;;;;;;;;5030370;28;20080;-67
2021/12/18 11:23:09;;;;;;;8.38;5.57;;;;;;;;;;5031752;28;20057;-67
2021/12/18 11:25:35;;;;;;;9.38;6.05;;;;;;;;;;5049700;28;20033;-67
2021/12/18 11:28:01;;;;;;;10.45;6.90;;;;;;;;;;5041941;28;20453;-68
2021/12/18 11:30:27;;;;;;;9.02;5.78;;;;;;;;;;5035103;28;20123;-68
2021/12/18 11:32:54;;;;;;;7.57;5.75;;;;;;;;;;5068448;28;20037;-67
2021/12/18 11:35:20;;;;;;;8.30;5.80;;;;;;;;;;5049778;28;20028;-68
2021/12/18 11:37:46;;;;;;;8.43;5.93;;;;;;;;;;5033513;28;20033;-68
2021/12/18 11:40:14;;;;;;;8.82;5.75;;;;;;;;;;5069083;28;20054;-67
2021/12/18 11:42:39;;;;;;;8.80;5.72;;;;;;;;;;5068531;28;20040;-68
2021/12/18 11:45:06;;;;;;;9.82;5.75;;;;;;;;;;5049917;28;20377;-67
2021/12/18 11:47:33;;;;;;;11.57;5.82;;;;;;;;;;5050778;28;20049;-67
2021/12/18 11:50:04;;;;;;;8.90;5.18;;;;;;;;;;5068608;28;20031;-67
2021/12/18 11:52:50;;;;;;;9.07;5.60;;;;;;;;;;5067431;28;20029;-67
2021/12/18 11:55:15;;;;;;;8.25;5.32;;;;;;;;;;5066773;28;20403;-68
2021/12/18 11:57:44;;;;;;;10.80;5.97;;;;;;;;;;5067062;28;20031;-67
2021/12/18 12:00:29;;;;;;;7.40;5.57;;;;;;;;;;5067012;28;20040;-67
2021/12/18 12:02:55;;;;;;;9.65;5.97;;;;;;;;;;5066559;28;20150;-67
2021/12/18 12:05:33;;;;;;;10.38;7.03;;;;;;;;;;5067420;28;20040;-67
2021/12/18 12:08:41;;;;;;;8.50;5.57;;;;;;;;;;5066798;28;20032;-67
2021/12/18 12:11:15;;;;;;;7.97;5.50;;;;;;;;;;4969928;28;20042;-67
2021/12/18 12:13:49;;;;;;;9.45;6.13;;;;;;;;;;5042402;28;20060;-67
2021/12/18 12:16:15;;;;;;;10.02;6.25;;;;;;;;;;5068920;28;20036;-67
2021/12/18 12:19:02;;;;;;;8.23;5.88;;;;;;;;;;5050600;28;20031;-67
2021/12/18 12:21:37;;;;;;;8.00;5.80;;;;;;;;;;5050677;28;20464;-67
2021/12/18 12:24:02;;;;;;;7.90;5.18;;;;;;;;;;5068788;28;20119;-66
2021/12/18 12:26:28;;;;;;;7.63;4.78;;;;;;;;;;5068638;28;20111;-67
2021/12/18 12:28:53;;;;;;;8.70;5.35;;;;;;;;;;5068852;28;20028;-68
2021/12/18 12:31:19;;;;;;;8.88;5.28;;;;;;;;;;5068579;28;20048;-67
2021/12/18 12:33:45;;;;;;;7.03;5.18;;;;;;;;;;5068603;28;20021;-68
2021/12/18 12:36:24;;;;;;;10.88;4.85;;;;;;;;;;5050780;28;20039;-66
2021/12/18 12:38:54;;;;;;;5.13;3.92;;;;;;;;;;5068521;28;20082;-67
2021/12/18 12:41:19;;;;;;;;;;;;;;;;;;5068928;28;20123;-67
2021/12/18 12:43:44;;;;;;;6.97;4.43;;;;;;;;;;5067219;28;20011;-67
2021/12/18 12:46:15;;;;;;;5.93;3.28;;;;;;;;;;5068464;28;20266;-68
2021/12/18 12:48:59;;;;;;;5.78;3.40;;;;;;;;;;5068445;28;20036;-68
2021/12/18 12:51:24;;;;;;;6.30;3.75;;;;;;;;;;5068251;28;20086;-66
2021/12/18 12:53:50;;;;;;;6.55;3.88;;;;;;;;;;5066985;28;20862;-67
2021/12/18 12:56:18;;;;;;;7.93;3.67;;;;;;;;;;5050449;28;20028;-66
2021/12/18 12:58:44;;;;;;;5.25;3.40;;;;;;;;;;5066787;28;20044;-67
2021/12/18 13:01:10;;;;;;;5.30;3.20;;;;;;;;;;5050308;28;20033;-67
2021/12/18 13:03:37;;;;;;;5.93;3.40;;;;;;;;;;5068449;28;20033;-68
2021/12/18 13:06:07;;;;;;;4.60;3.15;;;;;;;;;;5050150;28;20135;-67
2021/12/18 13:08:38;;;;;;;4.20;2.75;;;;;;;;;;5050011;28;20071;-66
2021/12/18 13:11:04;;;;;;;5.30;2.80;;;;;;;;;;5049964;28;20041;-67
2021/12/18 13:13:30;;;;;;;6.55;3.03;;;;;;;;;;5068103;28;20035;-67
2021/12/18 13:16:03;;;;;;;7.78;3.15;;;;;;;;;;5068139;28;20055;-67
2021/12/18 13:18:34;;;;;;;6.50;3.00;;;;;;;;;;5068272;28;20448;-68
2021/12/18 13:21:04;;;;;;;9.15;3.22;;;;;;;;;;5067751;28;20020;-67
2021/12/18 13:23:49;;;;;;;7.28;3.25;;;;;;;;;;5068222;28;20078;-68
2021/12/18 13:26:16;;;;;;;7.50;3.15;;;;;;;;;;5067967;28;20071;-68
2021/12/18 13:28:46;;;;;;;6.53;3.40;;;;;;;;;;5049607;28;20043;-67
2021/12/18 13:31:11;;;;;;;4.13;2.90;;;;;;;;;;5067972;28;20119;-67
2021/12/18 13:33:37;;;;;;;5.88;3.42;;;;;;;;;;5067859;28;20111;-67
2021/12/18 13:36:03;;;;;;;7.72;3.47;;;;;;;;;;5050033;28;20024;-66
2021/12/18 13:38:36;;;;;;;6.70;3.65;;;;;;;;;;5049983;28;20119;-67
2021/12/18 13:41:06;;;;;;;4.95;3.20;;;;;;;;;;5049853;28;20044;-67
2021/12/18 13:43:32;;;;;;;5.07;3.13;;;;;;;;;;5051342;28;20369;-67
2021/12/18 13:46:01;;;;;;;8.02;3.47;;;;;;;;;;5071152;28;20043;-66
2021/12/18 13:48:31;;;;;;;6.47;3.33;;;;;;;;;;5036621;28;20028;-66
2021/12/18 13:50:56;;;;;;;7.32;3.67;;;;;;;;;;5052901;28;20131;-67
2021/12/18 13:53:22;;;;;;;9.48;3.22;;;;;;;;;;5071461;28;20115;-66
2021/12/18 13:55:55;;;;;;;6.65;2.92;;;;;;;;;;5071183;28;20032;-67
2021/12/18 13:58:20;;;;;;;6.18;2.80;;;;;;;;;;5036464;28;20039;-67
2021/12/18 14:00:54;;;;;;;4.85;2.95;;;;;;;;;;5070574;28;20021;-67
2021/12/18 14:03:22;;;;;;;6.53;2.97;;;;;;;;;;5053056;28;20441;-67
2021/12/18 14:05:48;;;;;;;4.25;2.60;;;;;;;;;;5053327;28;20028;-67
2021/12/18 14:08:16;;;;;;;6.47;2.88;;;;;;;;;;5069650;28;20089;-67
2021/12/18 14:10:41;;;;;;;4.53;2.42;;;;;;;;;;5052784;28;20036;-67
2021/12/18 14:13:07;;;;;;;4.95;2.70;;;;;;;;;;5070779;28;20420;-67
2021/12/18 14:15:32;;;;;;;6.07;2.50;;;;;;;;;;5070418;28;20047;-67
2021/12/18 14:18:01;;;;;;;5.85;2.92;;;;;;;;;;5069853;28;20460;-67
2021/12/18 14:20:27;;;;;;;6.68;3.28;;;;;;;;;;5070381;28;20036;-68
2021/12/18 14:22:57;;;;;;;5.35;3.35;;;;;;;;;;5052056;28;20052;-67
2021/12/18 14:25:23;;;;;;;5.07;2.97;;;;;;;;;;5052674;28;20056;-67
2021/12/18 14:27:55;;;;;;;5.80;3.33;;;;;;;;;;5069514;28;20133;-68
2021/12/18 14:30:25;;;;;;;6.72;3.60;;;;;;;;;;5035970;28;20047;-68
2021/12/18 14:32:53;;;;;;;7.03;3.80;;;;;;;;;;5052548;28;20032;-68
2021/12/18 14:35:18;;;;;;;5.35;3.38;;;;;;;;;;5035859;28;20438;-68
2021/12/18 14:37:56;;;;;;;7.57;3.67;;;;;;;;;;5053016;28;20036;-68
2021/12/18 14:40:24;;;;;;;6.97;3.40;;;;;;;;;;5070124;28;20052;-68
2021/12/18 14:42:55;;;;;;;5.22;3.22;;;;;;;;;;5035611;28;20040;-68
2021/12/18 14:45:22;;;;;;;5.22;3.22;;;;;;;;;;5034362;28;20036;-68
2021/12/18 14:47:49;;;;;;;7.85;4.38;;;;;;;;;;5052241;28;20029;-69
2021/12/18 14:50:25;;;;;;;8.85;6.43;;;;;;;;;;5070305;28;20036;-68
2021/12/18 14:52:53;;;;;;;10.80;6.47;;;;;;;;;;5051851;28;20117;-68
2021/12/18 14:55:20;;;;;;;9.98;6.22;;;;;;;;;;5052579;28;20075;-68
2021/12/18 14:57:57;;;;;;;12.57;6.68;;;;;;;;;;5052011;28;20038;-67
2021/12/18 15:00:49;;;;;;;11.93;6.25;;;;;;;;;;5035332;28;20040;-67
2021/12/18 15:03:14;;;;;;;11.60;5.50;;;;;;;;;;5065632;28;20134;-67
2021/12/18 15:05:59;;;;;;;13.07;5.93;;;;;;;;;;5069097;28;20056;-67
2021/12/18 15:08:33;;;;;;;9.60;5.50;;;;;;;;;;5070117;28;20035;-68
2021/12/18 15:11:01;;;;;;;9.35;5.40;;;;;;;;;;5034830;28;20033;-67
2021/12/18 15:13:27;;;;;;;8.35;5.40;;;;;;;;;;5068719;28;20040;-67
2021/12/18 15:16:06;;;;;;;8.82;4.68;;;;;;;;;;5050417;28;20041;-67